createdAt,value
2023-05-09T00:00:02.645Z,15.45
2023-05-09T00:02:29.707Z,15.43
2023-05-09T00:04:56.791Z,15.42
2023-05-09T00:07:23.207Z,15.39
2023-05-09T00:09:49.589Z,15.38
2023-05-09T00:12:16.204Z,15.37
2023-05-09T00:14:45.263Z,15.35
2023-05-09T00:17:14.482Z,15.33
2023-05-09T00:19:41.147Z,15.34
2023-05-09T00:22:09.182Z,15.31
2023-05-09T00:24:35.627Z,15.28
2023-05-09T00:27:02.043Z,15.28
2023-05-09T00:29:28.404Z,15.27
2023-05-09T00:31:54.842Z,15.25
2023-05-09T00:34:21.271Z,15.23
2023-05-09T00:36:47.792Z,15.22
2023-05-09T00:39:14.232Z,15.20
2023-05-09T00:41:40.663Z,15.21
2023-05-09T00:44:07.093Z,15.21
2023-05-09T00:46:33.989Z,15.20
2023-05-09T00:49:00.489Z,15.22
2023-05-09T00:51:28.534Z,15.23
2023-05-09T00:53:55.070Z,15.25
2023-05-09T00:56:22.029Z,15.27
2023-05-09T00:58:48.852Z,15.29
2023-05-09T01:01:16.420Z,15.33
2023-05-09T01:03:43.645Z,15.35
2023-05-09T01:06:16.853Z,15.38
2023-05-09T01:09:00.171Z,15.41
2023-05-09T01:11:36.205Z,15.42
2023-05-09T01:14:27.502Z,15.42
2023-05-09T01:17:02.621Z,15.45
2023-05-09T01:19:56.735Z,15.46
2023-05-09T01:22:36.589Z,15.48
2023-05-09T01:25:24.247Z,15.47
2023-05-09T01:28:02.528Z,15.47
2023-05-09T01:30:29.671Z,15.47
2023-05-09T01:33:00.250Z,15.48
2023-05-09T01:35:29.996Z,15.48
2023-05-09T01:37:58.164Z,15.48
2023-05-09T01:40:27.979Z,15.49
2023-05-09T01:43:01.908Z,15.48
2023-05-09T01:45:29.969Z,15.47
2023-05-09T01:47:58.511Z,15.48
2023-05-09T01:50:25.943Z,15.48
2023-05-09T01:52:56.720Z,15.49
2023-05-09T01:55:26.976Z,15.50
2023-05-09T01:57:53.782Z,15.52
2023-05-09T02:00:22.068Z,15.53
2023-05-09T02:02:49.388Z,15.55
2023-05-09T02:05:17.516Z,15.58
2023-05-09T02:07:46.925Z,15.58
2023-05-09T02:10:15.486Z,15.58
2023-05-09T02:12:41.993Z,15.61
2023-05-09T02:15:08.907Z,15.61
2023-05-09T02:17:35.344Z,15.61
2023-05-09T02:20:01.787Z,15.61
2023-05-09T02:22:28.348Z,15.63
2023-05-09T02:24:54.925Z,15.64
2023-05-09T02:27:21.805Z,15.64
2023-05-09T02:29:51.451Z,15.66
2023-05-09T02:32:25.656Z,15.69
2023-05-09T02:34:54.093Z,15.70
2023-05-09T02:37:21.549Z,15.73
2023-05-09T02:39:48.331Z,15.75
2023-05-09T02:42:21.989Z,15.79
2023-05-09T02:44:48.408Z,15.83
2023-05-09T02:47:14.857Z,15.85
2023-05-09T02:49:41.220Z,15.87
2023-05-09T02:52:07.587Z,15.88
2023-05-09T02:54:33.998Z,15.88
2023-05-09T02:57:00.467Z,15.88
2023-05-09T02:59:27.410Z,15.89
2023-05-09T03:01:53.949Z,15.89
2023-05-09T03:04:20.338Z,15.90
2023-05-09T03:06:46.783Z,15.92
2023-05-09T03:09:13.184Z,15.92
2023-05-09T03:11:39.670Z,15.92
2023-05-09T03:14:08.238Z,15.92
2023-05-09T03:16:34.965Z,15.92
2023-05-09T03:19:01.360Z,15.91
2023-05-09T03:21:27.775Z,15.91
2023-05-09T03:23:54.184Z,15.90
2023-05-09T03:26:21.571Z,15.89
2023-05-09T03:28:48.924Z,15.89
2023-05-09T03:31:15.884Z,15.88
2023-05-09T03:33:42.311Z,15.88
2023-05-09T03:36:09.042Z,15.89
2023-05-09T03:38:35.448Z,15.89
2023-05-09T03:41:01.864Z,15.89
2023-05-09T03:43:28.258Z,15.91
2023-05-09T03:45:54.717Z,15.91
2023-05-09T03:48:21.182Z,15.92
2023-05-09T03:50:47.688Z,15.92
2023-05-09T03:53:14.088Z,15.93
2023-05-09T03:55:40.902Z,15.93
2023-05-09T03:58:07.334Z,15.91
2023-05-09T04:00:33.836Z,15.91
2023-05-09T04:03:00.447Z,15.92
2023-05-09T04:05:27.270Z,15.93
2023-05-09T04:07:53.744Z,15.95
2023-05-09T04:10:20.218Z,15.96
2023-05-09T04:12:46.616Z,15.97
2023-05-09T04:15:13.347Z,15.96
2023-05-09T04:17:40.089Z,15.96
2023-05-09T04:20:08.178Z,15.95
2023-05-09T04:22:34.579Z,15.96
2023-05-09T04:25:00.953Z,15.95
2023-05-09T04:27:28.110Z,15.96
2023-05-09T04:29:54.584Z,15.95
2023-05-09T04:32:22.427Z,15.96
2023-05-09T04:34:49.516Z,15.96
2023-05-09T04:37:15.968Z,15.97
2023-05-09T04:39:42.408Z,16.01
2023-05-09T04:42:08.812Z,16.05
2023-05-09T04:44:35.882Z,16.05
2023-05-09T04:47:02.288Z,16.07
2023-05-09T04:49:28.665Z,16.08
2023-05-09T04:51:55.052Z,16.10
2023-05-09T04:54:21.452Z,16.10
2023-05-09T04:56:50.014Z,16.12
2023-05-09T04:59:17.113Z,16.12
2023-05-09T05:01:43.665Z,16.11
2023-05-09T05:04:10.225Z,16.12
2023-05-09T05:06:36.676Z,16.14
2023-05-09T05:09:03.289Z,16.16
2023-05-09T05:11:29.700Z,16.18
2023-05-09T05:13:56.110Z,16.20
2023-05-09T05:16:22.593Z,16.21
2023-05-09T05:18:49.102Z,16.24
2023-05-09T05:21:16.298Z,16.26
2023-05-09T05:23:42.794Z,16.28
2023-05-09T05:26:09.235Z,16.30
2023-05-09T05:28:35.767Z,16.36
2023-05-09T05:31:02.259Z,16.42
2023-05-09T05:33:28.670Z,16.45
2023-05-09T05:35:55.063Z,16.49
2023-05-09T05:38:21.579Z,16.53
2023-05-09T05:40:48.079Z,16.58
2023-05-09T05:43:14.511Z,16.61
2023-05-09T05:45:40.994Z,16.62
2023-05-09T05:48:07.542Z,16.62
2023-05-09T05:50:34.486Z,16.66
2023-05-09T05:53:00.928Z,16.67
2023-05-09T05:55:27.333Z,16.65
2023-05-09T05:57:53.892Z,16.69
2023-05-09T06:00:20.833Z,16.72
2023-05-09T06:02:50.054Z,16.76
2023-05-09T06:05:16.981Z,16.81
2023-05-09T06:07:44.345Z,16.85
2023-05-09T06:10:11.202Z,16.90
2023-05-09T06:12:37.744Z,16.96
2023-05-09T06:15:05.897Z,17.01
2023-05-09T06:17:32.384Z,17.08
2023-05-09T06:19:58.805Z,17.14
2023-05-09T06:22:25.246Z,17.19
2023-05-09T06:24:51.596Z,17.24
2023-05-09T06:27:18.467Z,17.33
2023-05-09T06:29:44.880Z,17.27
2023-05-09T06:32:11.261Z,17.38
2023-05-09T06:34:37.672Z,17.48
2023-05-09T06:37:04.143Z,17.44
2023-05-09T06:39:30.636Z,17.43
2023-05-09T06:41:57.007Z,17.50
2023-05-09T06:44:23.419Z,17.49
2023-05-09T06:46:49.877Z,17.61
2023-05-09T06:49:16.354Z,17.57
2023-05-09T06:51:42.791Z,17.63
2023-05-09T06:54:09.166Z,17.71
2023-05-09T06:56:36.394Z,17.80
2023-05-09T06:59:02.882Z,17.82
2023-05-09T07:01:29.297Z,17.89
2023-05-09T07:03:55.760Z,17.96
2023-05-09T07:06:22.169Z,18.02
2023-05-09T07:08:48.592Z,18.03
2023-05-09T07:11:15.018Z,18.10
2023-05-09T07:13:41.743Z,18.17
2023-05-09T07:16:08.233Z,18.21
2023-05-09T07:18:34.860Z,18.25
2023-05-09T07:21:01.270Z,18.26
2023-05-09T07:23:27.692Z,18.33
2023-05-09T07:25:58.567Z,18.37
2023-05-09T07:28:25.996Z,18.40
2023-05-09T07:30:52.445Z,18.46
2023-05-09T07:33:18.849Z,18.48
2023-05-09T07:35:45.303Z,18.54
2023-05-09T07:38:12.112Z,18.52
2023-05-09T07:40:38.780Z,18.57
2023-05-09T07:43:05.220Z,18.68
2023-05-09T07:45:31.760Z,18.74
2023-05-09T07:47:58.241Z,18.75
2023-05-09T07:50:24.752Z,18.83
2023-05-09T07:52:52.655Z,18.89
2023-05-09T07:55:19.234Z,18.99
2023-05-09T07:57:45.687Z,19.12
2023-05-09T08:00:12.733Z,19.23
2023-05-09T08:02:39.256Z,19.34
2023-05-09T08:05:06.209Z,19.38
2023-05-09T08:07:32.632Z,19.47
2023-05-09T08:09:59.055Z,19.53
2023-05-09T08:12:25.510Z,19.61
2023-05-09T08:14:51.914Z,19.66
2023-05-09T08:17:18.357Z,19.75
2023-05-09T08:19:44.750Z,19.81
2023-05-09T08:22:19.793Z,19.75
2023-05-09T08:24:47.014Z,19.75
2023-05-09T08:27:14.844Z,19.85
2023-05-09T08:29:41.622Z,19.93
2023-05-09T08:32:08.633Z,19.95
2023-05-09T08:34:36.349Z,20.10
2023-05-09T08:37:03.977Z,20.27
2023-05-09T08:39:31.015Z,20.44
2023-05-09T08:41:59.505Z,20.58
2023-05-09T08:44:26.967Z,20.71
2023-05-09T08:46:58.517Z,20.74
2023-05-09T08:49:26.033Z,20.76
2023-05-09T08:51:52.508Z,20.68
2023-05-09T08:54:20.781Z,20.63
2023-05-09T08:56:50.394Z,20.71
2023-05-09T08:59:18.476Z,20.67
2023-05-09T09:01:45.661Z,20.62
2023-05-09T09:04:12.263Z,20.66
2023-05-09T09:06:39.762Z,20.70
2023-05-09T09:09:08.779Z,20.74
2023-05-09T09:11:36.669Z,20.76
2023-05-09T09:14:12.859Z,20.86
2023-05-09T09:16:41.582Z,20.88
2023-05-09T09:19:13.127Z,20.92
2023-05-09T09:21:43.340Z,20.92
2023-05-09T09:24:15.401Z,20.92
2023-05-09T09:26:47.158Z,20.92
2023-05-09T09:29:14.795Z,20.93
2023-05-09T09:31:45.163Z,21.00
2023-05-09T09:34:14.520Z,21.05
2023-05-09T09:36:41.104Z,21.11
2023-05-09T09:39:09.102Z,21.10
2023-05-09T09:41:39.260Z,21.28
2023-05-09T09:44:17.011Z,21.45
2023-05-09T09:46:43.808Z,21.55
2023-05-09T09:49:11.603Z,21.52
2023-05-09T09:51:38.117Z,21.46
2023-05-09T09:54:07.907Z,21.47
2023-05-09T09:56:47.852Z,21.43
2023-05-09T09:59:17.196Z,21.45
2023-05-09T10:02:07.562Z,21.43
2023-05-09T10:04:37.005Z,21.53
2023-05-09T10:07:13.543Z,21.56
2023-05-09T10:09:41.231Z,21.59
2023-05-09T10:12:08.578Z,21.50
2023-05-09T10:14:36.506Z,21.58
2023-05-09T10:17:05.529Z,21.63
2023-05-09T10:19:33.087Z,21.78
2023-05-09T10:22:05.738Z,21.87
2023-05-09T10:24:48.843Z,21.94
2023-05-09T10:27:21.674Z,22.04
2023-05-09T10:30:04.813Z,22.06
2023-05-09T10:32:41.714Z,22.15
2023-05-09T10:35:13.890Z,22.16
2023-05-09T10:37:41.187Z,22.24
2023-05-09T10:40:09.174Z,22.35
2023-05-09T10:42:36.059Z,22.42
2023-05-09T10:45:03.062Z,22.53
2023-05-09T10:47:31.942Z,22.67
2023-05-09T10:49:59.465Z,22.74
2023-05-09T10:52:31.992Z,22.89
2023-05-09T10:55:04.032Z,22.90
2023-05-09T10:57:32.054Z,22.75
2023-05-09T11:00:00.243Z,22.80
2023-05-09T11:02:30.785Z,22.74
2023-05-09T11:05:20.186Z,22.78
2023-05-09T11:07:46.713Z,22.70
2023-05-09T11:10:18.002Z,22.74
2023-05-09T11:12:59.134Z,22.78
2023-05-09T11:15:27.728Z,22.77
2023-05-09T11:18:08.548Z,22.84
2023-05-09T11:20:35.780Z,22.64
2023-05-09T11:23:05.852Z,22.66
2023-05-09T11:25:32.990Z,22.57
2023-05-09T11:28:01.866Z,22.60
2023-05-09T11:30:42.512Z,22.47
2023-05-09T11:33:28.363Z,22.43
2023-05-09T11:36:29.174Z,22.45
2023-05-09T11:39:06.495Z,22.51
2023-05-09T11:41:44.069Z,22.55
2023-05-09T11:44:17.961Z,22.60
2023-05-09T11:46:45.863Z,22.63
2023-05-09T11:49:12.537Z,22.68
2023-05-09T11:51:39.573Z,22.75
2023-05-09T11:54:07.166Z,22.81
2023-05-09T11:56:37.968Z,22.82
2023-05-09T11:59:04.487Z,22.82
2023-05-09T12:01:31.253Z,22.92
2023-05-09T12:03:59.149Z,22.98
2023-05-09T12:06:29.890Z,23.06
2023-05-09T12:08:57.773Z,23.21
2023-05-09T12:11:24.826Z,23.26
2023-05-09T12:13:52.680Z,23.29
2023-05-09T12:16:20.469Z,23.37
2023-05-09T12:18:49.553Z,23.40
2023-05-09T12:21:17.163Z,23.49
2023-05-09T12:23:44.205Z,23.63
2023-05-09T12:26:10.997Z,23.65
2023-05-09T12:28:37.959Z,23.72
2023-05-09T12:31:05.651Z,23.63
2023-05-09T12:33:32.428Z,23.36
2023-05-09T12:36:06.969Z,23.43
2023-05-09T12:38:33.742Z,23.42
2023-05-09T12:41:04.517Z,23.42
2023-05-09T12:43:32.749Z,23.55
2023-05-09T12:46:00.453Z,23.73
2023-05-09T12:48:27.504Z,23.98
2023-05-09T12:50:53.981Z,24.07
2023-05-09T12:53:25.107Z,24.24
2023-05-09T12:55:55.948Z,24.33
2023-05-09T12:58:22.384Z,24.43
2023-05-09T13:00:48.864Z,24.54
2023-05-09T13:03:42.414Z,24.41
2023-05-09T13:06:13.552Z,24.27
2023-05-09T13:08:40.910Z,24.10
2023-05-09T13:11:16.748Z,24.05
2023-05-09T13:13:43.736Z,24.08
2023-05-09T13:16:11.231Z,23.94
2023-05-09T13:18:38.477Z,23.95
2023-05-09T13:21:04.877Z,23.87
2023-05-09T13:23:31.294Z,23.69
2023-05-09T13:25:57.704Z,23.67
2023-05-09T13:28:24.081Z,23.68
2023-05-09T13:30:50.522Z,23.64
2023-05-09T13:33:25.984Z,23.52
2023-05-09T13:35:53.166Z,23.40
2023-05-09T13:38:19.653Z,23.32
2023-05-09T13:40:46.388Z,23.24
2023-05-09T13:43:12.823Z,23.07
2023-05-09T13:45:39.262Z,22.94
2023-05-09T13:48:05.989Z,22.92
2023-05-09T13:50:32.476Z,22.91
2023-05-09T13:52:59.013Z,22.80
2023-05-09T13:55:26.914Z,22.73
2023-05-09T13:57:53.453Z,22.69
2023-05-09T14:00:21.385Z,22.57
2023-05-09T14:02:48.328Z,22.54
2023-05-09T14:05:14.873Z,22.54
2023-05-09T14:07:41.347Z,22.52
2023-05-09T14:10:11.922Z,22.47
2023-05-09T14:12:39.645Z,22.46
2023-05-09T14:15:07.767Z,22.40
2023-05-09T14:17:34.440Z,22.34
2023-05-09T14:20:01.115Z,22.20
2023-05-09T14:22:28.186Z,22.05
2023-05-09T14:24:56.467Z,22.01
2023-05-09T14:27:22.985Z,21.99
2023-05-09T14:29:49.447Z,21.91
2023-05-09T14:32:16.091Z,21.80
2023-05-09T14:34:42.575Z,21.72
2023-05-09T14:37:13.610Z,21.68
2023-05-09T14:39:44.954Z,21.56
2023-05-09T14:42:11.702Z,21.44
2023-05-09T14:44:38.792Z,21.30
2023-05-09T14:47:05.421Z,21.21
2023-05-09T14:49:32.476Z,21.10
2023-05-09T14:51:59.004Z,21.05
2023-05-09T14:54:25.578Z,20.98
2023-05-09T14:56:51.945Z,20.95
2023-05-09T14:59:18.522Z,20.94
2023-05-09T15:01:46.178Z,20.89
2023-05-09T15:04:12.672Z,20.86
2023-05-09T15:06:39.710Z,20.79
2023-05-09T15:09:06.202Z,20.75
2023-05-09T15:11:46.228Z,20.69
2023-05-09T15:14:14.698Z,20.66
2023-05-09T15:16:41.396Z,20.65
2023-05-09T15:19:08.202Z,20.62
2023-05-09T15:21:35.074Z,20.58
2023-05-09T15:24:02.495Z,20.48
2023-05-09T15:26:29.385Z,20.50
2023-05-09T15:28:58.321Z,20.43
2023-05-09T15:31:25.754Z,20.39
2023-05-09T15:33:52.362Z,20.39
2023-05-09T15:36:18.866Z,20.36
2023-05-09T15:38:49.098Z,20.30
2023-05-09T15:41:15.906Z,20.02
2023-05-09T15:43:42.297Z,19.83
2023-05-09T15:46:08.929Z,19.82
2023-05-09T15:48:35.354Z,19.82
2023-05-09T15:51:03.024Z,19.78
2023-05-09T15:53:29.972Z,19.75
2023-05-09T15:55:57.043Z,19.73
2023-05-09T15:58:23.496Z,19.74
2023-05-09T16:00:50.125Z,19.73
2023-05-09T16:03:16.705Z,19.67
2023-05-09T16:05:46.358Z,19.64
2023-05-09T16:08:12.820Z,19.62
2023-05-09T16:10:39.326Z,19.60
2023-05-09T16:13:05.971Z,19.54
2023-05-09T16:15:32.646Z,19.52
2023-05-09T16:17:59.045Z,19.50
2023-05-09T16:20:25.462Z,19.48
2023-05-09T16:22:52.083Z,19.47
2023-05-09T16:25:18.533Z,19.46
2023-05-09T16:27:45.064Z,19.47
2023-05-09T16:30:12.063Z,19.47
2023-05-09T16:32:38.793Z,19.48
2023-05-09T16:35:06.230Z,19.44
2023-05-09T16:37:34.151Z,19.42
2023-05-09T16:40:02.202Z,19.39
2023-05-09T16:42:28.682Z,19.38
2023-05-09T16:44:55.752Z,19.38
2023-05-09T16:47:22.297Z,19.37
2023-05-09T16:49:48.787Z,19.37
2023-05-09T16:52:15.367Z,19.36
2023-05-09T16:54:41.811Z,19.33
2023-05-09T16:57:08.396Z,19.21
2023-05-09T16:59:34.846Z,19.15
2023-05-09T17:02:01.503Z,19.14
2023-05-09T17:04:27.995Z,19.09
2023-05-09T17:06:54.526Z,19.06
2023-05-09T17:09:20.994Z,19.01
2023-05-09T17:11:48.262Z,18.98
2023-05-09T17:14:14.884Z,18.93
2023-05-09T17:16:41.327Z,18.91
2023-05-09T17:19:07.896Z,18.93
2023-05-09T17:21:34.920Z,18.91
2023-05-09T17:24:02.184Z,18.94
2023-05-09T17:26:29.652Z,18.96
2023-05-09T17:28:56.133Z,18.93
2023-05-09T17:31:22.992Z,18.94
2023-05-09T17:33:49.479Z,18.91
2023-05-09T17:36:15.934Z,18.89
2023-05-09T17:38:42.421Z,18.84
2023-05-09T17:41:08.834Z,18.81
2023-05-09T17:43:35.199Z,18.77
2023-05-09T17:46:01.645Z,18.75
2023-05-09T17:48:28.158Z,18.72
2023-05-09T17:50:54.995Z,18.71
2023-05-09T17:53:21.725Z,18.70
2023-05-09T17:55:48.168Z,18.64
2023-05-09T17:58:15.235Z,18.58
2023-05-09T18:00:41.852Z,18.52
2023-05-09T18:03:08.365Z,18.45
2023-05-09T18:05:34.925Z,18.44
2023-05-09T18:08:01.495Z,18.37
2023-05-09T18:10:28.641Z,18.34
2023-05-09T18:12:55.115Z,18.28
2023-05-09T18:15:21.577Z,18.27
2023-05-09T18:17:49.187Z,18.25
2023-05-09T18:20:15.948Z,18.26
2023-05-09T18:22:42.545Z,18.26
2023-05-09T18:25:09.376Z,18.28
2023-05-09T18:27:35.821Z,18.28
2023-05-09T18:30:02.596Z,18.28
2023-05-09T18:32:29.937Z,18.30
2023-05-09T18:34:56.483Z,18.30
2023-05-09T18:37:22.993Z,18.30
2023-05-09T18:39:49.671Z,18.24
2023-05-09T18:42:16.464Z,18.19
2023-05-09T18:44:43.192Z,18.14
2023-05-09T18:47:09.737Z,18.11
2023-05-09T18:49:36.206Z,18.09
2023-05-09T18:52:03.412Z,18.07
2023-05-09T18:54:29.907Z,18.00
2023-05-09T18:56:56.380Z,17.97
2023-05-09T18:59:23.467Z,17.90
2023-05-09T19:01:50.281Z,17.90
2023-05-09T19:04:17.368Z,17.89
2023-05-09T19:06:44.110Z,17.88
2023-05-09T19:09:11.647Z,17.90
2023-05-09T19:11:38.191Z,17.88
2023-05-09T19:14:05.122Z,17.87
2023-05-09T19:16:31.751Z,17.84
2023-05-09T19:18:58.899Z,17.83
2023-05-09T19:21:25.542Z,17.81
2023-05-09T19:23:52.351Z,17.79
2023-05-09T19:26:19.580Z,17.78
2023-05-09T19:28:46.827Z,17.75
2023-05-09T19:31:14.834Z,17.70
2023-05-09T19:33:45.455Z,17.63
2023-05-09T19:36:12.183Z,17.60
2023-05-09T19:38:38.852Z,17.57
2023-05-09T19:41:05.352Z,17.57
2023-05-09T19:43:32.498Z,17.57
2023-05-09T19:45:59.943Z,17.53
2023-05-09T19:48:26.521Z,17.53
2023-05-09T19:50:57.305Z,17.55
2023-05-09T19:53:23.996Z,17.54
2023-05-09T19:55:50.482Z,17.52
2023-05-09T19:58:17.721Z,17.48
2023-05-09T20:00:44.765Z,17.42
2023-05-09T20:03:11.305Z,17.35
2023-05-09T20:05:37.928Z,17.30
2023-05-09T20:08:04.492Z,17.26
2023-05-09T20:10:32.882Z,17.20
2023-05-09T20:13:00.881Z,17.16
2023-05-09T20:15:27.840Z,17.15
2023-05-09T20:17:54.428Z,17.13
2023-05-09T20:20:21.105Z,17.10
2023-05-09T20:22:47.607Z,17.08
2023-05-09T20:25:14.766Z,17.04
2023-05-09T20:27:41.336Z,17.02
2023-05-09T20:30:08.323Z,16.99
2023-05-09T20:32:35.149Z,16.96
2023-05-09T20:35:01.919Z,16.95
2023-05-09T20:37:28.319Z,16.94
2023-05-09T20:39:54.667Z,16.91
2023-05-09T20:42:21.172Z,16.88
2023-05-09T20:44:48.632Z,16.86
2023-05-09T20:47:15.062Z,16.83
2023-05-09T20:49:41.454Z,16.78
2023-05-09T20:52:07.888Z,16.74
2023-05-09T20:54:34.449Z,16.71
2023-05-09T20:57:00.873Z,16.64
2023-05-09T20:59:27.306Z,16.59
2023-05-09T21:01:55.567Z,16.49
2023-05-09T21:04:22.324Z,16.47
2023-05-09T21:06:48.830Z,16.42
2023-05-09T21:09:15.287Z,16.38
2023-05-09T21:11:41.734Z,16.36
2023-05-09T21:14:08.681Z,16.34
2023-05-09T21:16:35.319Z,16.30
2023-05-09T21:19:04.812Z,16.26
2023-05-09T21:21:33.172Z,16.22
2023-05-09T21:24:03.085Z,16.20
2023-05-09T21:26:30.325Z,16.20
2023-05-09T21:28:56.815Z,16.21
2023-05-09T21:31:23.272Z,16.23
2023-05-09T21:33:49.774Z,16.26
2023-05-09T21:36:16.146Z,16.25
2023-05-09T21:38:42.551Z,16.24
2023-05-09T21:41:10.030Z,16.21
2023-05-09T21:43:37.456Z,16.14
2023-05-09T21:46:05.186Z,16.15
2023-05-09T21:48:31.716Z,16.13
2023-05-09T21:51:02.080Z,16.11
2023-05-09T21:53:28.598Z,16.10
2023-05-09T21:55:54.972Z,16.11
2023-05-09T21:58:21.383Z,16.13
2023-05-09T22:00:47.827Z,16.13
2023-05-09T22:03:14.267Z,16.12
2023-05-09T22:05:41.246Z,16.07
2023-05-09T22:08:07.706Z,16.08
2023-05-09T22:10:34.114Z,16.09
2023-05-09T22:13:00.629Z,16.06
2023-05-09T22:15:27.842Z,16.04
2023-05-09T22:17:54.290Z,16.01
2023-05-09T22:20:21.114Z,15.97
2023-05-09T22:22:47.580Z,15.95
2023-05-09T22:25:14.233Z,15.94
2023-05-09T22:27:41.708Z,15.91
2023-05-09T22:30:09.256Z,15.86
2023-05-09T22:32:35.705Z,15.85
2023-05-09T22:35:02.260Z,15.85
2023-05-09T22:37:28.759Z,15.83
2023-05-09T22:39:55.728Z,15.83
2023-05-09T22:42:22.171Z,15.84
2023-05-09T22:44:49.713Z,15.82
2023-05-09T22:47:16.225Z,15.81
2023-05-09T22:52:09.846Z,15.77
2023-05-09T22:54:36.279Z,15.77
2023-05-09T22:57:02.794Z,15.77
2023-05-09T22:59:29.224Z,15.77
2023-05-09T23:01:55.816Z,15.76
2023-05-09T23:04:22.186Z,15.75
2023-05-09T23:06:48.659Z,15.74
2023-05-09T23:09:15.086Z,15.73
2023-05-09T23:11:42.215Z,15.72
2023-05-09T23:14:08.653Z,15.70
2023-05-09T23:16:35.399Z,15.70
2023-05-09T23:19:01.929Z,15.67
2023-05-09T23:21:29.102Z,15.68
2023-05-09T23:23:55.523Z,15.66
2023-05-09T23:26:21.959Z,15.65
2023-05-09T23:28:48.409Z,15.64
2023-05-09T23:31:14.927Z,15.64
2023-05-09T23:33:41.349Z,15.62
2023-05-09T23:36:08.165Z,15.63
2023-05-09T23:38:34.562Z,15.63
2023-05-09T23:41:01.304Z,15.61
2023-05-09T23:43:27.703Z,15.58
2023-05-09T23:45:54.345Z,15.56
2023-05-09T23:48:20.909Z,15.55
2023-05-09T23:50:47.313Z,15.53
2023-05-09T23:53:13.747Z,15.49
2023-05-09T23:55:40.178Z,15.48
2023-05-09T23:58:06.540Z,15.45
